sensor_id;sensor_type;location;lat;lon;timestamp;pressure;altitude;pressure_sealevel;temperature;humidity
22775;BME280;11554;51.106;3.684;2024-03-23T00:55:00;101270.39;;;6.11;100.0
22775;BME280;11554;51.106;3.684;2024-03-23T01:00:00;101268.4;;;6.16;100.0
22775;BME280;11554;51.106;3.684;2024-03-23T01:05:00;101264.98;;;6.20;100.0
22775;BME280;11554;51.106;3.684;2024-03-23T01:10:00;101265.0;;;6.19;100.0
22775;BME280;11554;51.106;3.684;2024-03-23T01:15:00;101264.03;;;6.16;100.0
22775;BME280;11554;51.106;3.684;2024-03-23T01:20:00;101258.88;;;6.12;100.0
22775;BME280;11554;51.106;3.684;2024-03-23T01:25:00;101260.43;;;6.04;100.0
22775;BME280;11554;51.106;3.684;2024-03-23T01:30:00;101255.86;;;5.93;100.0
22775;BME280;11554;51.106;3.684;2024-03-23T01:35:00;101247.28;;;5.80;100.0
22775;BME280;11554;51.106;3.684;2024-03-23T01:40:00;101243.02;;;5.70;100.0
22775;BME280;11554;51.106;3.684;2024-03-23T01:45:00;101249.15999999999;;;5.60;100.0
22775;BME280;11554;51.106;3.684;2024-03-23T01:50:00;101245.75;;;5.52;100.0
22775;BME280;11554;51.106;3.684;2024-03-23T01:55:00;101240.58;;;5.46;100.0
22775;BME280;11554;51.106;3.684;2024-03-23T02:00:00;101241.08;;;5.43;100.0
22775;BME280;11554;51.106;3.684;2024-03-23T02:05:00;101236.56999999999;;;5.41;100.0
22775;BME280;11554;51.106;3.684;2024-03-23T02:10:00;101242.98999999999;;;5.37;100.0
22775;BME280;11554;51.106;3.684;2024-03-23T02:15:00;101241.72;;;5.34;100.0
22775;BME280;11554;51.106;3.684;2024-03-23T02:20:00;101236.93;;;5.35;100.0
22775;BME280;11554;51.106;3.684;2024-03-23T02:25:00;101236.28;;;5.35;100.0
22775;BME280;11554;51.106;3.684;2024-03-23T02:30:00;101232.06;;;5.34;100.0
22775;BME280;11554;51.106;3.684;2024-03-23T02:35:00;101230.03;;;5.33;100.0
22775;BME280;11554;51.106;3.684;2024-03-23T02:40:00;101224.3;;;5.33;100.0
22775;BME280;11554;51.106;3.684;2024-03-23T02:45:00;101217.85;;;5.29;100.0
22775;BME280;11554;51.106;3.684;2024-03-23T02:50:00;101214.43000000001;;;5.28;100.0
22775;BME280;11554;51.106;3.684;2024-03-23T02:55:00;101211.23999999999;;;5.24;100.0
22775;BME280;11554;51.106;3.684;2024-03-23T03:00:00;101203.31999999999;;;5.15;100.0
22775;BME280;11554;51.106;3.684;2024-03-23T03:05:00;101197.97;;;5.03;100.0
22775;BME280;11554;51.106;3.684;2024-03-23T03:10:00;101200.01999999999;;;4.94;100.0
22775;BME280;11554;51.106;3.684;2024-03-23T03:15:00;101203.3;;;4.95;100.0
22775;BME280;11554;51.106;3.684;2024-03-23T03:20:00;101196.13;;;4.94;100.0
22775;BME280;11554;51.106;3.684;2024-03-23T03:25:00;101192.56;;;4.93;100.0
22775;BME280;11554;51.106;3.684;2024-03-23T03:30:00;101196.78;;;4.91;100.0
22775;BME280;11554;51.106;3.684;2024-03-23T03:35:00;101201.47;;;4.86;100.0
22775;BME280;11554;51.106;3.684;2024-03-23T03:40:00;101202.61;;;4.89;100.0
22775;BME280;11554;51.106;3.684;2024-03-23T03:45:00;101196.94;;;4.92;100.0
22775;BME280;11554;51.106;3.684;2024-03-23T03:50:00;101193.25;;;4.88;100.0
22775;BME280;11554;51.106;3.684;2024-03-23T03:55:01;101188.23;;;4.88;100.0
22775;BME280;11554;51.106;3.684;2024-03-23T04:00:00;101191.88;;;4.92;100.0
22775;BME280;11554;51.106;3.684;2024-03-23T04:05:00;101192.22;;;4.97;100.0
22775;BME280;11554;51.106;3.684;2024-03-23T04:10:00;101202.81;;;5.02;100.0
22775;BME280;11554;51.106;3.684;2024-03-23T04:15:00;101190.26;;;5.03;100.0
22775;BME280;11554;51.106;3.684;2024-03-23T04:20:00;101193.19;;;4.96;100.0
22775;BME280;11554;51.106;3.684;2024-03-23T04:25:00;101190.5;;;4.90;100.0
22775;BME280;11554;51.106;3.684;2024-03-23T04:30:00;101188.17;;;4.77;100.0
22775;BME280;11554;51.106;3.684;2024-03-23T04:35:00;101192.5;;;4.68;100.0
22775;BME280;11554;51.106;3.684;2024-03-23T04:40:00;101193.52;;;4.60;100.0
22775;BME280;11554;51.106;3.684;2024-03-23T04:45:00;101200.13;;;4.51;100.0
22775;BME280;11554;51.106;3.684;2024-03-23T04:50:00;101200.39;;;4.48;100.0
22775;BME280;11554;51.106;3.684;2024-03-23T04:55:00;101206.09;;;4.54;100.0
22775;BME280;11554;51.106;3.684;2024-03-23T05:00:00;101199.17;;;4.60;100.0
22775;BME280;11554;51.106;3.684;2024-03-23T05:05:00;101204.61;;;4.65;100.0
22775;BME280;11554;51.106;3.684;2024-03-23T05:10:00;101202.18;;;4.75;100.0
22775;BME280;11554;51.106;3.684;2024-03-23T05:15:00;101200.51;;;4.81;100.0
22775;BME280;11554;51.106;3.684;2024-03-23T05:20:00;101200.2;;;4.86;100.0
22775;BME280;11554;51.106;3.684;2024-03-23T05:25:00;101203.01;;;4.89;100.0
22775;BME280;11554;51.106;3.684;2024-03-23T05:30:00;101201.01;;;4.85;100.0
22775;BME280;11554;51.106;3.684;2024-03-23T05:35:00;101204.88;;;4.85;100.0
22775;BME280;11554;51.106;3.684;2024-03-23T05:40:00;101201.06;;;4.89;100.0
22775;BME280;11554;51.106;3.684;2024-03-23T05:45:00;101201.65;;;4.90;100.0
22775;BME280;11554;51.106;3.684;2024-03-23T05:50:00;101197.61;;;4.86;100.0
22775;BME280;11554;51.106;3.684;2024-03-23T05:55:00;101197.47;;;4.91;100.0
22775;BME280;11554;51.106;3.684;2024-03-23T06:00:00;101204.76999999999;;;4.99;100.0
22775;BME280;11554;51.106;3.684;2024-03-23T06:05:00;101208.91;;;4.99;100.0
22775;BME280;11554;51.106;3.684;2024-03-23T06:10:00;101215.45;;;4.95;100.0
22775;BME280;11554;51.106;3.684;2024-03-23T06:15:00;101219.44;;;4.86;100.0
22775;BME280;11554;51.106;3.684;2024-03-23T06:20:00;101220.89;;;4.94;100.0
22775;BME280;11554;51.106;3.684;2024-03-23T06:25:00;101218.73000000001;;;5.06;100.0
22775;BME280;11554;51.106;3.684;2024-03-23T06:30:00;101219.26;;;5.44;100.0
22775;BME280;11554;51.106;3.684;2024-03-23T06:35:00;101220.61;;;5.87;100.0
22775;BME280;11554;51.106;3.684;2024-03-23T06:40:00;101222.74;;;6.13;100.0
22775;BME280;11554;51.106;3.684;2024-03-23T06:45:00;101228.61;;;6.59;100.0
22775;BME280;11554;51.106;3.684;2024-03-23T06:50:00;101218.08;;;6.25;100.0
22775;BME280;11554;51.106;3.684;2024-03-23T06:55:00;101215.09;;;6.12;100.0
22775;BME280;11554;51.106;3.684;2024-03-23T07:00:00;101218.64;;;6.25;100.0
22775;BME280;11554;51.106;3.684;2024-03-23T07:05:00;101216.6;;;6.39;100.0
22775;BME280;11554;51.106;3.684;2024-03-23T07:10:00;101220.37;;;6.32;100.0
22775;BME280;11554;51.106;3.684;2024-03-23T07:15:00;101219.12;;;6.33;100.0
22775;BME280;11554;51.106;3.684;2024-03-23T07:20:00;101221.2;;;6.71;100.0
22775;BME280;11554;51.106;3.684;2024-03-23T07:25:00;101221.5;;;7.20;100.0
22775;BME280;11554;51.106;3.684;2024-03-23T07:30:00;101215.16;;;7.18;100.0
22775;BME280;11554;51.106;3.684;2024-03-23T07:35:00;101213.67;;;7.11;100.0
22775;BME280;11554;51.106;3.684;2024-03-23T07:40:00;101208.7;;;6.76;100.0
22775;BME280;11554;51.106;3.684;2024-03-23T07:45:00;101208.69;;;6.55;100.0
22775;BME280;11554;51.106;3.684;2024-03-23T07:50:00;101206.3;;;6.75;100.0
22775;BME280;11554;51.106;3.684;2024-03-23T07:55:00;101211.5;;;7.01;100.0
22775;BME280;11554;51.106;3.684;2024-03-23T08:00:00;101211.22;;;7.22;100.0
22775;BME280;11554;51.106;3.684;2024-03-23T08:05:00;101202.36;;;7.40;100.0
22775;BME280;11554;51.106;3.684;2024-03-23T08:10:00;101192.93000000001;;;7.68;100.0
22775;BME280;11554;51.106;3.684;2024-03-23T08:15:00;101178.23;;;7.91;100.0
22775;BME280;11554;51.106;3.684;2024-03-23T08:20:00;101172.19;;;8.26;100.0
22775;BME280;11554;51.106;3.684;2024-03-23T08:25:00;101175.79;;;8.77;100.0
22775;BME280;11554;51.106;3.684;2024-03-23T08:30:00;101180.14;;;8.68;100.0
22775;BME280;11554;51.106;3.684;2024-03-23T08:35:00;101198.73999999999;;;7.72;100.0
22775;BME280;11554;51.106;3.684;2024-03-23T08:40:00;101195.9;;;7.20;100.0
22775;BME280;11554;51.106;3.684;2024-03-23T08:45:00;101197.64;;;7.09;100.0
22775;BME280;11554;51.106;3.684;2024-03-23T08:50:00;101195.15;;;7.45;100.0
22775;BME280;11554;51.106;3.684;2024-03-23T08:55:00;101194.39;;;7.92;100.0
22775;BME280;11554;51.106;3.684;2024-03-23T09:00:00;101186.75;;;7.86;100.0
22775;BME280;11554;51.106;3.684;2024-03-23T09:05:00;101194.24;;;7.94;100.0
22775;BME280;11554;51.106;3.684;2024-03-23T09:10:00;101184.74;;;8.74;100.0
22775;BME280;11554;51.106;3.684;2024-03-23T09:15:00;101191.56;;;8.84;100.0
22775;BME280;11554;51.106;3.684;2024-03-23T09:20:00;101199.26000000001;;;8.44;100.0
22775;BME280;11554;51.106;3.684;2024-03-23T09:25:00;101205.88;;;7.85;100.0
22775;BME280;11554;51.106;3.684;2024-03-23T09:30:00;101203.15000000001;;;8.22;100.0
22775;BME280;11554;51.106;3.684;2024-03-23T09:35:00;101189.67;;;8.86;100.0
22775;BME280;11554;51.106;3.684;2024-03-23T09:40:00;101189.12;;;9.60;100.0
22775;BME280;11554;51.106;3.684;2024-03-23T09:45:00;101199.69;;;9.26;100.0
22775;BME280;11554;51.106;3.684;2024-03-23T09:50:00;101188.42;;;9.17;100.0
22775;BME280;11554;51.106;3.684;2024-03-23T09:55:00;101184.28;;;10.33;100.0
22775;BME280;11554;51.106;3.684;2024-03-23T10:00:00;101185.94;;;10.13;100.0
22775;BME280;11554;51.106;3.684;2024-03-23T10:05:00;101178.36;;;10.29;100.0
22775;BME280;11554;51.106;3.684;2024-03-23T10:10:05;101180.12999999999;;;9.96;100.0
22775;BME280;11554;51.106;3.684;2024-03-23T10:15:00;101180.70999999999;;;10.64;100.0
22775;BME280;11554;51.106;3.684;2024-03-23T10:20:00;101173.83;;;11.16;100.0
22775;BME280;11554;51.106;3.684;2024-03-23T10:25:06;101174.39;;;9.96;100.0
22775;BME280;11554;51.106;3.684;2024-03-23T10:30:07;101162.34;;;9.48;100.0
22775;BME280;11554;51.106;3.684;2024-03-23T10:40:00;101160.58;;;9.52;100.0
22775;BME280;11554;51.106;3.684;2024-03-23T10:45:00;101159.05;;;9.50;100.0
22775;BME280;11554;51.106;3.684;2024-03-23T10:50:00;101158.53;;;9.75;100.0
22775;BME280;11554;51.106;3.684;2024-03-23T10:55:01;101161.47;;;9.07;100.0
22775;BME280;11554;51.106;3.684;2024-03-23T11:00:01;101167.04999999999;;;7.81;100.0
22775;BME280;11554;51.106;3.684;2024-03-23T11:05:00;101155.53;;;7.60;100.0
22775;BME280;11554;51.106;3.684;2024-03-23T11:10:00;101144.96;;;8.18;100.0
22775;BME280;11554;51.106;3.684;2024-03-23T11:15:01;101136.8;;;9.26;100.0
22775;BME280;11554;51.106;3.684;2024-03-23T11:20:00;101118.26999999999;;;10.53;100.0
22775;BME280;11554;51.106;3.684;2024-03-23T11:25:00;101119.83;;;10.17;100.0
22775;BME280;11554;51.106;3.684;2024-03-23T11:30:09;101110.83;;;9.71;100.0
22775;BME280;11554;51.106;3.684;2024-03-23T11:35:00;101113.84000000001;;;9.75;100.0
22775;BME280;11554;51.106;3.684;2024-03-23T11:40:00;101102.5;;;10.57;100.0
22775;BME280;11554;51.106;3.684;2024-03-23T11:45:06;101109.78;;;10.38;100.0
22775;BME280;11554;51.106;3.684;2024-03-23T11:50:00;101101.2;;;10.02;100.0
22775;BME280;11554;51.106;3.684;2024-03-23T11:55:03;101095.34;;;9.77;100.0
22775;BME280;11554;51.106;3.684;2024-03-23T12:00:00;101082.37000000001;;;10.01;100.0
22775;BME280;11554;51.106;3.684;2024-03-23T12:10:02;101079.13;;;11.92;100.0
22775;BME280;11554;51.106;3.684;2024-03-23T12:15:01;101073.29;;;11.64;100.0
22775;BME280;11554;51.106;3.684;2024-03-23T12:20:00;101064.63;;;11.60;100.0
22775;BME280;11554;51.106;3.684;2024-03-23T12:25:00;101068.56;;;11.02;100.0
22775;BME280;11554;51.106;3.684;2024-03-23T12:30:00;101069.48999999999;;;10.75;100.0
22775;BME280;11554;51.106;3.684;2024-03-23T12:35:00;101058.14;;;10.17;100.0
22775;BME280;11554;51.106;3.684;2024-03-23T12:40:00;101066.94;;;9.62;100.0
22775;BME280;11554;51.106;3.684;2024-03-23T12:45:00;101071.96;;;9.41;100.0
22775;BME280;11554;51.106;3.684;2024-03-23T12:50:00;101083.11;;;9.08;100.0
22775;BME280;11554;51.106;3.684;2024-03-23T12:55:00;101085.41;;;9.20;100.0
22775;BME280;11554;51.106;3.684;2024-03-23T13:00:00;101068.2;;;8.95;100.0
22775;BME280;11554;51.106;3.684;2024-03-23T13:05:00;101059.14;;;8.78;100.0
22775;BME280;11554;51.106;3.684;2024-03-23T13:10:00;101047.05;;;9.52;100.0
22775;BME280;11554;51.106;3.684;2024-03-23T13:15:00;101042.58;;;9.22;100.0
22775;BME280;11554;51.106;3.684;2024-03-23T13:20:00;101032.31;;;10.31;100.0
22775;BME280;11554;51.106;3.684;2024-03-23T13:25:00;101023.94;;;10.70;100.0
22775;BME280;11554;51.106;3.684;2024-03-23T13:30:00;101021.04000000001;;;10.95;100.0
22775;BME280;11554;51.106;3.684;2024-03-23T13:35:00;101001.05;;;10.69;100.0
22775;BME280;11554;51.106;3.684;2024-03-23T13:40:00;100995.39;;;10.73;100.0
22775;BME280;11554;51.106;3.684;2024-03-23T13:45:00;100990.20000000001;;;11.13;100.0
22775;BME280;11554;51.106;3.684;2024-03-23T13:50:00;100987.34;;;10.99;100.0
22775;BME280;11554;51.106;3.684;2024-03-23T13:55:00;100980.14;;;11.18;100.0
22775;BME280;11554;51.106;3.684;2024-03-23T14:00:00;100977.55;;;10.83;100.0
22775;BME280;11554;51.106;3.684;2024-03-23T14:05:01;100967.17;;;10.69;100.0
22775;BME280;11554;51.106;3.684;2024-03-23T14:10:02;100961.93;;;10.71;100.0
22775;BME280;11554;51.106;3.684;2024-03-23T14:15:00;100959.77;;;10.36;100.0
22775;BME280;11554;51.106;3.684;2024-03-23T14:20:00;100971.84;;;9.93;100.0
22775;BME280;11554;51.106;3.684;2024-03-23T14:25:00;100977.14;;;9.12;100.0
22775;BME280;11554;51.106;3.684;2024-03-23T14:30:00;100963.62000000001;;;8.76;100.0
22775;BME280;11554;51.106;3.684;2024-03-23T14:35:00;100952.42;;;8.63;100.0
22775;BME280;11554;51.106;3.684;2024-03-23T14:40:00;100946.81;;;8.63;100.0
22775;BME280;11554;51.106;3.684;2024-03-23T14:45:00;100948.35;;;8.90;100.0
22775;BME280;11554;51.106;3.684;2024-03-23T14:50:00;100950.45;;;8.85;100.0
22775;BME280;11554;51.106;3.684;2024-03-23T14:55:00;100946.39;;;8.44;100.0
22775;BME280;11554;51.106;3.684;2024-03-23T15:00:00;100939.20000000001;;;8.24;100.0
22775;BME280;11554;51.106;3.684;2024-03-23T15:05:00;100929.22;;;8.13;100.0
22775;BME280;11554;51.106;3.684;2024-03-23T15:10:00;100920.59000000001;;;7.94;100.0
22775;BME280;11554;51.106;3.684;2024-03-23T15:15:00;100914.84;;;7.87;100.0
22775;BME280;11554;51.106;3.684;2024-03-23T15:20:00;100907.45;;;7.87;100.0
22775;BME280;11554;51.106;3.684;2024-03-23T15:25:00;100910.35;;;8.17;100.0
22775;BME280;11554;51.106;3.684;2024-03-23T15:30:00;100908.59;;;8.14;100.0
22775;BME280;11554;51.106;3.684;2024-03-23T15:35:00;100906.12999999999;;;8.10;100.0
22775;BME280;11554;51.106;3.684;2024-03-23T15:40:00;100918.32;;;7.98;100.0
22775;BME280;11554;51.106;3.684;2024-03-23T15:45:00;100920.22;;;7.74;100.0
22775;BME280;11554;51.106;3.684;2024-03-23T15:50:00;100907.12;;;7.41;100.0
22775;BME280;11554;51.106;3.684;2024-03-23T15:55:00;100882.81;;;7.26;100.0
22775;BME280;11554;51.106;3.684;2024-03-23T16:00:00;100885.79999999999;;;7.07;100.0
22775;BME280;11554;51.106;3.684;2024-03-23T16:05:00;100920.98;;;6.82;100.0
22775;BME280;11554;51.106;3.684;2024-03-23T16:10:00;100902.22;;;6.36;100.0
22775;BME280;11554;51.106;3.684;2024-03-23T16:15:00;100894.46;;;6.17;100.0
22775;BME280;11554;51.106;3.684;2024-03-23T16:20:01;100899.34;;;6.15;100.0
22775;BME280;11554;51.106;3.684;2024-03-23T16:25:00;100900.95;;;6.13;100.0
22775;BME280;11554;51.106;3.684;2024-03-23T16:30:00;100900.17;;;6.09;100.0
22775;BME280;11554;51.106;3.684;2024-03-23T16:35:00;100887.98000000001;;;6.02;100.0
22775;BME280;11554;51.106;3.684;2024-03-23T16:40:00;100896.73;;;5.85;100.0
22775;BME280;11554;51.106;3.684;2024-03-23T16:45:00;100908.15;;;5.73;100.0
22775;BME280;11554;51.106;3.684;2024-03-23T16:50:00;100912.27;;;5.72;100.0
22775;BME280;11554;51.106;3.684;2024-03-23T16:55:00;100920.59000000001;;;5.71;100.0
22775;BME280;11554;51.106;3.684;2024-03-23T17:00:00;100924.3;;;5.70;100.0
22775;BME280;11554;51.106;3.684;2024-03-23T17:05:00;100933.67;;;5.68;100.0
22775;BME280;11554;51.106;3.684;2024-03-23T17:10:00;100924.03;;;5.82;100.0
22775;BME280;11554;51.106;3.684;2024-03-23T17:15:03;100903.09;;;6.01;100.0
22775;BME280;11554;51.106;3.684;2024-03-23T17:20:00;100889.59;;;6.12;100.0
22775;BME280;11554;51.106;3.684;2024-03-23T17:25:00;100880.76;;;6.06;100.0
22775;BME280;11554;51.106;3.684;2024-03-23T17:30:00;100878.91;;;5.86;100.0
22775;BME280;11554;51.106;3.684;2024-03-23T17:35:00;100878.36;;;5.64;100.0
22775;BME280;11554;51.106;3.684;2024-03-23T17:40:00;100868.37000000001;;;5.45;100.0
22775;BME280;11554;51.106;3.684;2024-03-23T17:45:00;100864.36;;;5.27;100.0
22775;BME280;11554;51.106;3.684;2024-03-23T17:50:00;100854.35;;;5.03;100.0
22775;BME280;11554;51.106;3.684;2024-03-23T17:55:00;100856.52;;;4.84;100.0
22775;BME280;11554;51.106;3.684;2024-03-23T18:00:00;100852.11;;;4.70;100.0
22775;BME280;11554;51.106;3.684;2024-03-23T18:05:00;100857.9;;;4.52;100.0
22775;BME280;11554;51.106;3.684;2024-03-23T18:10:00;100862.83;;;4.30;100.0
22775;BME280;11554;51.106;3.684;2024-03-23T18:15:00;100861.49;;;4.07;100.0
22775;BME280;11554;51.106;3.684;2024-03-23T18:20:00;100860.31;;;3.98;100.0
22775;BME280;11554;51.106;3.684;2024-03-23T18:25:00;100867.75;;;3.95;100.0
22775;BME280;11554;51.106;3.684;2024-03-23T18:30:00;100870.28;;;3.95;100.0
22775;BME280;11554;51.106;3.684;2024-03-23T18:35:00;100866.41;;;4.04;100.0
22775;BME280;11554;51.106;3.684;2024-03-23T18:40:00;100866.9;;;4.08;100.0
22775;BME280;11554;51.106;3.684;2024-03-23T18:45:00;100874.59;;;4.00;100.0
22775;BME280;11554;51.106;3.684;2024-03-23T18:50:00;100876.48000000001;;;3.99;100.0
22775;BME280;11554;51.106;3.684;2024-03-23T18:55:00;100882.95000000001;;;4.00;100.0
22775;BME280;11554;51.106;3.684;2024-03-23T19:00:00;100881.62;;;4.10;100.0
22775;BME280;11554;51.106;3.684;2024-03-23T19:05:00;100886.05;;;4.27;100.0
22775;BME280;11554;51.106;3.684;2024-03-23T19:10:00;100886.63;;;4.39;100.0
22775;BME280;11554;51.106;3.684;2024-03-23T19:15:00;100885.42;;;4.50;100.0
22775;BME280;11554;51.106;3.684;2024-03-23T19:20:00;100884.56999999999;;;4.52;100.0
22775;BME280;11554;51.106;3.684;2024-03-23T19:25:00;100878.17;;;4.45;100.0
22775;BME280;11554;51.106;3.684;2024-03-23T19:30:00;100883.83;;;4.38;100.0
22775;BME280;11554;51.106;3.684;2024-03-23T19:35:00;100879.98999999999;;;4.31;100.0
22775;BME280;11554;51.106;3.684;2024-03-23T19:40:00;100872.64;;;4.24;100.0
22775;BME280;11554;51.106;3.684;2024-03-23T19:45:00;100863.12000000001;;;4.21;100.0
22775;BME280;11554;51.106;3.684;2024-03-23T19:50:00;100861.03;;;4.18;100.0
22775;BME280;11554;51.106;3.684;2024-03-23T19:55:00;100859.72;;;4.21;100.0
22775;BME280;11554;51.106;3.684;2024-03-23T20:00:00;100862.0;;;4.22;100.0
22775;BME280;11554;51.106;3.684;2024-03-23T20:05:00;100871.0;;;4.19;100.0
22775;BME280;11554;51.106;3.684;2024-03-23T20:10:00;100868.53;;;4.13;100.0
22775;BME280;11554;51.106;3.684;2024-03-23T20:15:00;100868.84;;;4.11;100.0
22775;BME280;11554;51.106;3.684;2024-03-23T20:20:00;100870.12;;;4.07;100.0
22775;BME280;11554;51.106;3.684;2024-03-23T20:25:00;100869.81;;;4.08;100.0
22775;BME280;11554;51.106;3.684;2024-03-23T20:30:00;100871.64;;;4.04;100.0
22775;BME280;11554;51.106;3.684;2024-03-23T20:35:00;100870.0;;;4.02;100.0
22775;BME280;11554;51.106;3.684;2024-03-23T20:40:00;100870.25;;;4.02;100.0
22775;BME280;11554;51.106;3.684;2024-03-23T20:45:00;100874.87;;;4.10;100.0
22775;BME280;11554;51.106;3.684;2024-03-23T20:50:00;100885.20999999999;;;4.22;100.0
22775;BME280;11554;51.106;3.684;2024-03-23T20:55:00;100884.82;;;4.26;100.0
22775;BME280;11554;51.106;3.684;2024-03-23T21:00:00;100883.01;;;4.28;100.0
22775;BME280;11554;51.106;3.684;2024-03-23T21:05:00;100874.69;;;4.34;100.0
22775;BME280;11554;51.106;3.684;2024-03-23T21:10:00;100869.34;;;4.25;100.0
22775;BME280;11554;51.106;3.684;2024-03-23T21:15:00;100874.91;;;4.08;100.0
22775;BME280;11554;51.106;3.684;2024-03-23T21:20:00;100871.32;;;3.96;100.0
22775;BME280;11554;51.106;3.684;2024-03-23T21:25:00;100869.94;;;3.94;100.0
22775;BME280;11554;51.106;3.684;2024-03-23T21:30:00;100857.23000000001;;;3.93;100.0
22775;BME280;11554;51.106;3.684;2024-03-23T21:35:00;100853.45;;;3.88;100.0
22775;BME280;11554;51.106;3.684;2024-03-23T21:40:00;100855.35;;;3.85;100.0
22775;BME280;11554;51.106;3.684;2024-03-23T21:45:00;100857.89;;;3.82;100.0
22775;BME280;11554;51.106;3.684;2024-03-23T21:50:00;100851.88;;;3.88;100.0
22775;BME280;11554;51.106;3.684;2024-03-23T21:55:00;100858.65;;;3.81;100.0
22775;BME280;11554;51.106;3.684;2024-03-23T22:00:00;100855.90999999999;;;3.82;100.0
22775;BME280;11554;51.106;3.684;2024-03-23T22:05:00;100851.61;;;3.83;100.0
22775;BME280;11554;51.106;3.684;2024-03-23T22:10:00;100854.89;;;3.88;100.0
22775;BME280;11554;51.106;3.684;2024-03-23T22:15:00;100847.13;;;3.92;100.0
22775;BME280;11554;51.106;3.684;2024-03-23T22:20:00;100839.45;;;3.93;100.0
22775;BME280;11554;51.106;3.684;2024-03-23T22:25:00;100832.09000000001;;;3.97;100.0
22775;BME280;11554;51.106;3.684;2024-03-23T22:30:00;100822.39;;;3.95;100.0
22775;BME280;11554;51.106;3.684;2024-03-23T22:35:00;100821.81;;;4.00;100.0
22775;BME280;11554;51.106;3.684;2024-03-23T22:40:01;100824.03;;;4.05;100.0
22775;BME280;11554;51.106;3.684;2024-03-23T22:45:00;100825.37;;;4.13;100.0
22775;BME280;11554;51.106;3.684;2024-03-23T22:50:00;100813.35;;;4.18;100.0
22775;BME280;11554;51.106;3.684;2024-03-23T22:55:00;100802.04;;;4.25;100.0
22775;BME280;11554;51.106;3.684;2024-03-23T23:00:00;100793.64;;;4.30;100.0
22775;BME280;11554;51.106;3.684;2024-03-23T23:05:00;100792.56;;;4.35;100.0
22775;BME280;11554;51.106;3.684;2024-03-23T23:10:00;100788.64;;;4.39;100.0
22775;BME280;11554;51.106;3.684;2024-03-23T23:15:00;100779.3;;;4.42;100.0
22775;BME280;11554;51.106;3.684;2024-03-23T23:20:00;100768.19;;;4.45;100.0
22775;BME280;11554;51.106;3.684;2024-03-23T23:25:00;100771.56;;;4.48;100.0
22775;BME280;11554;51.106;3.684;2024-03-23T23:30:00;100782.09000000001;;;4.52;100.0
22775;BME280;11554;51.106;3.684;2024-03-23T23:35:01;100786.84;;;4.58;100.0
22775;BME280;11554;51.106;3.684;2024-03-23T23:40:00;100784.97;;;4.60;100.0
22775;BME280;11554;51.106;3.684;2024-03-23T23:45:00;100779.44;;;4.64;100.0
22775;BME280;11554;51.106;3.684;2024-03-23T23:50:00;100777.56000000001;;;4.67;100.0
22775;BME280;11554;51.106;3.684;2024-03-23T23:55:00;100775.17;;;4.69;100.0
